Austin, Texas
Traffic Map
Current Weather Conditions
Austin, Texas
Few Clouds
Few Clouds
89°
Feels Like: 94°
Wind Chill: 89° Ceiling: Unl
Heat Index: 94° Visibility: 10mi
Dew Point: 69° Wind: 7mph
Humidity: 52% Direction: ° ()
Pressure: 30.03in Gusts: 0mph
Raw Report DataKATT 211951Z AUTO VRB06KT 10SM FEW048 32/21 A3003 RMK AO2 SLP157 T03170206
Traffic Incident Summary
Active as of:
Severity:
Category:
InformationThere was an issue retrieving the traffic information for this location. Please try a different location or try again shortly.
Advertisements
Track Severe Weather on mobile